Search for airport 
image banner adimage banner adimage banner ad
image banner ad

PS67 - Uphill

Located in Claysville, United States

ICAO - PS67, IATA -

Data provided by Airmate  

General information

Coordinates: N40°6'22" W80°25'51"
Elevation is 1360 feet MSL.
Magnetic variation is -07° East
View others Airports in Pennsylvania

Operational data

Special qualification required
Current time UTC:
Current local time:
Weather at : KAFJ - Washington County ( 12 km )
METAR: KAFJ 291456Z AUTO 21007KT 10SM FEW070 24/21 A2999 RMK AO2 SLP148 T02390206 58005
View NOTAMs / SUP AIP / TFR affecting this airport [VIEW]
Communications frequencies: [VIEW]

Runways:

RWY identifierQFULength (ft)Width (ft)SurfaceLDA (ft)
10186575GRASS
28186575GRASS

Airport contact information

Address: Claysville United States

Satellite view of PS67